Etusivu
METAR-TAF:

METAR-TAF

Lentoasemat :

Gafsa, Tunisia

Leveyspiiri: 34-25N, Pituuspiiri: 008-49E, korkeus merenpinnasta: 313 m

Tämänhetkinen sää

Tämä raportti tehtiin 1 tunti ja 4 minuuttia sitten, kello 07.00 UTC
Tuuli 8 kn pohjoisesta/koillisesta
Lämpötila 17°C
Kosteus 72%
Ilmanpaine 999 hPa
Näkyvyys: 4000 m
Muutamia pilviä 2600 ft:n korkeudessa
usvaa

METAR: DTTF 220700Z 03008KT 4000 HZ FEW026 17/12 Q0999 NOSIG

Aika: 09:04 (08:04 UTC)

Sääennuste

Tämä raportti tehtiin 2 tuntia ja 4 minuuttia sitten, kello 06.00 UTC
Ennuste voimassa 22. päivästä klo 07 UTC - 22. päivään klo 16 UTC
Tuuli 15 kn pohjoisesta/koillisesta
Näkyvyys: 6000 m
Hajanaisia pilviä 2600 ft:n korkeudessa
Ajoittain
22. päivästä klo 10 UTC - 22. päivään klo 16 UTC
Tuuli 20 kn lännestä/lounaasta puuskistuen 30 kn:hen
Näkyvyys: 3000 m
hiekkaa

TAF: DTTF 220600Z 2207/2216 02015KT 6000 SCT026 TEMPO 2210/2216 24020G30KT 3000 SA

Säähavainnot ja -ennusteet yli 4000 lentoasemalta (METAR- ja TAF-raportit).

Käytössä olevat sääasemat on merkitty karttaan keltaisilla ja punaisilla pisteillä.

Aseta hiiri pisteen päälle nähdäksesi sääaseman nimen.

Klikkaa sitten nähdäksesi säähavainnot ja -ennusteet.

Kartan vaihtaminen: klikkaa mustalla rastilla varustettuja vihreitä pisteitä, niin voit zoomata sisään; viivalla varustettua vihreää pistettä, niin voit zoomata ulos tai vihreitä nuolia, niin pääset viereisille kartoille.


METAR-TAF: